Time;durP1;ratioP1;P1;durP2;ratioP2;P2;SDS_P1;SDS_P2;PMS_P1;PMS_P2;Temp;Humidity;BMP_temperature;BMP_pressure;BME280_temperature;BME280_humidity;BME280_pressure;Samples;Min_cycle;Max_cycle;Signal;HPM_P1;HPM_P2
2023/08/27 00:00:33;;;;;;;6.82;3.70;;;;;;;15.41;100.00;98362.38;5012579;28;20034;-74
2023/08/27 00:02:59;;;;;;;6.00;2.80;;;;;;;15.36;100.00;98362.28;5008404;28;20030;-74
2023/08/27 00:05:24;;;;;;;8.23;3.10;;;;;;;15.28;100.00;98349.06;4992460;28;20472;-74
2023/08/27 00:07:49;;;;;;;3.88;2.85;;;;;;;15.32;100.00;98366.56;4991552;28;20038;-74
2023/08/27 00:10:15;;;;;;;5.07;2.92;;;;;;;15.30;100.00;98375.00;4992929;28;20022;-74
2023/08/27 00:12:40;;;;;;;7.05;2.95;;;;;;;15.27;100.00;98363.72;5004263;28;20025;-74
2023/08/27 00:15:06;;;;;;;6.35;3.33;;;;;;;15.23;100.00;98344.34;4991227;28;20029;-74
2023/08/27 00:17:32;;;;;;;5.93;3.10;;;;;;;15.22;100.00;98326.34;4986023;28;20046;-74
2023/08/27 00:19:58;;;;;;;8.77;2.58;;;;;;;15.24;100.00;98340.53;4983800;28;20058;-74
2023/08/27 00:22:23;;;;;;;4.95;2.70;;;;;;;15.30;100.00;98341.44;4973277;28;20027;-74
2023/08/27 00:24:48;;;;;;;6.68;2.60;;;;;;;15.26;100.00;98334.84;4975627;28;20455;-74
2023/08/27 00:27:13;;;;;;;5.88;3.15;;;;;;;15.21;100.00;98327.38;4991206;28;20515;-74
2023/08/27 00:29:39;;;;;;;10.13;3.03;;;;;;;15.12;100.00;98321.53;4978415;28;20400;-74
2023/08/27 00:32:05;;;;;;;6.80;2.88;;;;;;;15.04;100.00;98304.75;4979651;28;20019;-74
2023/08/27 00:34:32;;;;;;;5.90;2.60;;;;;;;15.12;100.00;98321.53;4983748;28;20109;-74
2023/08/27 00:36:58;;;;;;;4.47;3.10;;;;;;;15.13;100.00;98319.63;4986402;28;20023;-74
2023/08/27 00:39:24;;;;;;;7.15;2.90;;;;;;;15.21;100.00;98348.38;4985449;28;20022;-74
2023/08/27 00:41:49;;;;;;;4.03;2.55;;;;;;;14.97;100.00;98325.88;4984616;28;20044;-74
2023/08/27 00:44:14;;;;;;;7.70;2.92;;;;;;;15.19;100.00;98356.78;4977028;28;20031;-74
2023/08/27 00:46:39;;;;;;;7.25;3.47;;;;;;;15.20;100.00;98363.09;4992907;28;20098;-74
2023/08/27 00:49:05;;;;;;;11.32;2.92;;;;;;;15.18;100.00;98355.13;5002650;28;20037;-74
2023/08/27 00:51:32;;;;;;;6.65;2.50;;;;;;;15.35;100.00;98371.50;4998925;28;20027;-74
2023/08/27 00:53:58;;;;;;;6.15;2.65;;;;;;;15.28;100.00;98354.50;4996450;28;20030;-74
2023/08/27 00:56:24;;;;;;;9.02;3.28;;;;;;;15.31;100.00;98359.47;4999630;28;20018;-74
2023/08/27 00:58:49;;;;;;;11.05;3.60;;;;;;;15.43;100.00;98390.22;5004344;28;20038;-73
2023/08/27 01:01:16;;;;;;;6.88;3.72;;;;;;;15.38;100.00;98395.59;5012730;28;20014;-74
2023/08/27 01:03:42;;;;;;;7.45;4.07;;;;;;;15.48;100.00;98398.50;5008795;28;20046;-74
2023/08/27 01:06:07;;;;;;;4.70;3.20;;;;;;;15.51;100.00;98400.72;5014189;28;20026;-73
2023/08/27 01:08:36;;;;;;;6.22;3.70;;;;;;;15.63;100.00;98402.56;5007730;28;20105;-74
2023/08/27 01:11:27;;;;;;;8.23;3.92;;;;;;;15.49;100.00;98381.06;5012718;28;21792;-73
2023/08/27 01:14:01;;;;;;;8.38;3.70;;;;;;;15.55;100.00;98392.88;5005041;28;20065;-73
2023/08/27 01:16:28;;;;;;;8.50;3.97;;;;;;;15.57;100.00;98391.56;5013282;28;20011;-73
2023/08/27 01:18:54;;;;;;;7.47;4.20;;;;;;;15.57;100.00;98385.28;5007312;28;20033;-74
2023/08/27 01:21:19;;;;;;;9.20;3.90;;;;;;;15.54;100.00;98378.41;4999541;28;20098;-73
2023/08/27 01:23:45;;;;;;;7.97;4.05;;;;;;;15.39;100.00;98348.16;5008382;28;20038;-74
2023/08/27 01:26:16;;;;;;;7.60;4.05;;;;;;;15.57;100.00;98372.47;5000804;28;20033;-74
2023/08/27 01:28:45;;;;;;;7.22;3.47;;;;;;;15.45;100.00;98341.72;4996828;28;20026;-74
2023/08/27 01:31:20;;;;;;;;;;;;;;;15.67;100.00;98374.56;5013523;28;20045;-73
2023/08/27 01:33:49;;;;;;;7.40;3.20;;;;;;;15.72;100.00;98371.13;5019072;28;19914;-73
2023/08/27 01:36:18;;;;;;;9.07;3.13;;;;;;;15.70;100.00;98360.44;5010474;28;20029;-74
2023/08/27 01:38:43;;;;;;;4.90;3.10;;;;;;;15.74;100.00;98367.03;5016176;28;20089;-74
2023/08/27 01:41:08;;;;;;;5.10;3.50;;;;;;;15.86;100.00;98386.06;5011533;28;20025;-74
2023/08/27 01:43:34;;;;;;;6.53;3.45;;;;;;;15.80;100.00;98369.84;4996034;28;20022;-74
2023/08/27 01:45:59;;;;;;;9.07;3.55;;;;;;;15.91;100.00;98394.34;5005466;28;20115;-74
2023/08/27 01:48:24;;;;;;;5.35;3.58;;;;;;;15.83;100.00;98381.13;4997425;28;20026;-74
2023/08/27 01:50:50;;;;;;;10.05;4.05;;;;;;;15.81;100.00;98369.63;4998881;28;20027;-74
2023/08/27 01:53:15;;;;;;;6.65;3.47;;;;;;;15.89;100.00;98380.13;4976794;28;20027;-74
2023/08/27 01:55:40;;;;;;;6.78;3.10;;;;;;;15.80;100.00;98373.44;4989247;28;20022;-74
2023/08/27 01:58:06;;;;;;;8.82;3.47;;;;;;;15.82;100.00;98356.81;4990388;28;20082;-73
2023/08/27 02:00:31;;;;;;;11.05;3.30;;;;;;;15.77;100.00;98325.66;4999676;28;20045;-74
2023/08/27 02:02:56;;;;;;;5.55;3.53;;;;;;;15.75;100.00;98313.34;4999689;28;20022;-74
2023/08/27 02:05:21;;;;;;;4.65;2.85;;;;;;;15.59;100.00;98289.56;4998964;28;20384;-73
2023/08/27 02:07:47;;;;;;;8.57;3.40;;;;;;;15.65;100.00;98310.41;5019660;28;20021;-74
2023/08/27 02:10:12;;;;;;;9.18;3.15;;;;;;;15.59;100.00;98323.16;5010622;28;20030;-74
2023/08/27 02:12:38;;;;;;;6.10;3.10;;;;;;;15.53;100.00;98314.03;4998974;28;20026;-74
2023/08/27 02:15:06;;;;;;;6.88;3.40;;;;;;;15.57;100.00;98336.19;4996079;28;20019;-74
2023/08/27 02:17:32;;;;;;;6.35;3.30;;;;;;;15.46;100.00;98324.28;5001913;28;20098;-74
2023/08/27 02:19:57;;;;;;;4.88;2.85;;;;;;;15.53;100.00;98315.94;4983903;28;20113;-74
2023/08/27 02:22:22;;;;;;;6.13;2.90;;;;;;;15.45;100.00;98309.00;4979576;28;20688;-73
2023/08/27 02:24:48;;;;;;;6.82;3.20;;;;;;;15.49;100.00;98309.34;4994033;28;20038;-74
2023/08/27 02:27:13;;;;;;;8.88;3.42;;;;;;;15.53;100.00;98308.59;4996779;28;20035;-74
2023/08/27 02:29:38;;;;;;;6.90;3.20;;;;;;;15.57;100.00;98315.22;4991986;28;20022;-73
2023/08/27 02:32:04;;;;;;;5.75;3.08;;;;;;;15.51;100.00;98321.66;4999112;28;20109;-74
2023/08/27 02:34:29;;;;;;;6.07;3.20;;;;;;;15.59;100.00;98330.47;4993344;28;20030;-74
2023/08/27 02:36:55;;;;;;;11.35;3.72;;;;;;;15.39;100.00;98290.91;5002965;28;20025;-74
2023/08/27 02:39:20;;;;;;;4.80;3.13;;;;;;;15.61;100.00;98333.78;4989453;28;20490;-74
2023/08/27 02:41:45;;;;;;;5.68;2.95;;;;;;;15.46;100.00;98304.41;4987104;28;20029;-74
2023/08/27 02:44:10;;;;;;;5.82;2.83;;;;;;;15.50;100.00;98300.91;4997288;28;20037;-74
2023/08/27 02:46:36;;;;;;;8.57;3.00;;;;;;;15.63;100.00;98321.56;4999494;28;20069;-74
2023/08/27 02:49:01;;;;;;;6.68;3.05;;;;;;;15.55;100.00;98294.72;5000565;28;20025;-74
2023/08/27 02:51:26;;;;;;;8.88;3.00;;;;;;;15.55;100.00;98311.88;4953426;28;1066482;-74
2023/08/27 02:53:52;;;;;;;7.63;3.10;;;;;;;15.56;100.00;98334.53;5002359;28;20104;-74
2023/08/27 02:56:18;;;;;;;4.28;3.22;;;;;;;15.53;100.00;98324.13;5023633;28;20025;-74
2023/08/27 02:58:43;;;;;;;4.20;2.90;;;;;;;15.54;100.00;98339.44;4994503;28;20094;-74
2023/08/27 03:01:09;;;;;;;7.57;2.95;;;;;;;15.52;100.00;98330.66;4989159;28;20034;-74
2023/08/27 03:03:35;;;;;;;4.97;2.42;;;;;;;15.55;100.00;98332.88;4995777;28;20022;-74
2023/08/27 03:06:00;;;;;;;8.38;3.13;;;;;;;15.57;100.00;98333.47;4999269;28;20084;-74
2023/08/27 03:08:26;;;;;;;5.40;2.67;;;;;;;15.70;100.00;98343.25;4996143;28;20018;-74
2023/08/27 03:10:51;;;;;;;11.60;3.60;;;;;;;15.69;100.00;98323.34;4999558;28;20038;-74
2023/08/27 03:13:16;;;;;;;6.70;3.63;;;;;;;15.63;100.00;98318.00;5000448;28;20117;-74
2023/08/27 03:15:42;;;;;;;7.35;3.70;;;;;;;15.46;100.00;98294.31;5001173;28;20022;-73
2023/08/27 03:18:07;;;;;;;7.18;3.50;;;;;;;15.52;100.00;98306.94;4980052;28;20073;-74
2023/08/27 03:20:32;;;;;;;6.15;3.28;;;;;;;15.59;100.00;98305.94;4978699;28;20085;-74
2023/08/27 03:22:58;;;;;;;6.43;3.55;;;;;;;15.60;100.00;98302.97;4976552;28;20453;-74
2023/08/27 03:25:23;;;;;;;11.50;3.70;;;;;;;15.67;100.00;98320.00;4979807;28;20445;-74
2023/08/27 03:27:48;;;;;;;7.78;3.00;;;;;;;15.55;100.00;98306.44;4994958;28;20057;-74
2023/08/27 03:30:13;;;;;;;6.53;2.72;;;;;;;15.63;100.00;98307.09;4998503;28;20032;-74
2023/08/27 03:32:39;;;;;;;6.72;3.10;;;;;;;15.54;100.00;98291.16;4988171;28;20041;-74
2023/08/27 03:35:04;;;;;;;8.05;3.60;;;;;;;15.72;100.00;98311.13;4997857;28;20093;-74
2023/08/27 03:37:30;;;;;;;6.25;3.28;;;;;;;15.72;100.00;98309.22;4997906;28;20030;-74
2023/08/27 03:39:55;;;;;;;5.38;3.90;;;;;;;15.66;100.00;98309.34;4982847;28;20030;-74
2023/08/27 03:42:21;;;;;;;6.95;3.83;;;;;;;15.52;100.00;98265.22;4995926;28;20049;-74
2023/08/27 03:44:46;;;;;;;5.20;3.42;;;;;;;15.70;100.00;98286.81;4994456;28;20081;-74
2023/08/27 03:47:11;;;;;;;9.05;3.85;;;;;;;15.66;100.00;98280.16;4992348;28;20400;-74
2023/08/27 03:49:37;;;;;;;7.30;3.22;;;;;;;15.67;100.00;98278.28;4987428;28;20037;-74
2023/08/27 03:52:03;;;;;;;6.03;3.40;;;;;;;15.61;100.00;98274.63;4994585;28;20026;-74
2023/08/27 03:54:30;;;;;;;5.47;4.07;;;;;;;15.61;100.00;98292.88;4992554;28;20038;-74
2023/08/27 03:56:55;;;;;;;6.50;3.65;;;;;;;15.63;100.00;98301.66;4992941;28;20052;-74
2023/08/27 03:59:21;;;;;;;7.07;3.58;;;;;;;15.63;100.00;98307.09;4992528;28;20097;-74
2023/08/27 04:01:46;;;;;;;8.48;4.45;;;;;;;15.48;100.00;98310.41;4994007;28;20030;-75
2023/08/27 04:04:11;;;;;;;7.15;3.75;;;;;;;15.44;100.00;98299.19;4993306;28;20022;-74
2023/08/27 04:06:36;;;;;;;14.30;4.28;;;;;;;15.53;100.00;98308.59;4995278;28;20030;-74
2023/08/27 04:09:04;;;;;;;11.93;4.40;;;;;;;15.53;100.00;98302.31;4977606;28;20088;-74
2023/08/27 04:11:30;;;;;;;9.80;4.13;;;;;;;15.46;100.00;98291.59;4992863;28;20030;-74
2023/08/27 04:13:55;;;;;;;9.70;3.80;;;;;;;15.47;100.00;98289.69;4993313;28;20081;-74
2023/08/27 04:16:21;;;;;;;7.35;4.15;;;;;;;15.46;100.00;98286.13;4992371;28;20468;-74
2023/08/27 04:18:46;;;;;;;8.73;4.00;;;;;;;15.58;100.00;98294.22;4985133;28;20019;-74
2023/08/27 04:21:11;;;;;;;13.50;4.35;;;;;;;15.63;100.00;98307.09;4991071;28;20034;-74
2023/08/27 04:23:37;;;;;;;8.18;4.03;;;;;;;15.61;100.00;98296.44;4991894;28;20044;-74
2023/08/27 04:26:03;;;;;;;7.30;3.70;;;;;;;15.56;100.00;98302.66;4978370;28;20061;-74
2023/08/27 04:28:28;;;;;;;6.25;3.75;;;;;;;15.58;100.00;98299.66;4993755;28;20037;-74
2023/08/27 04:30:54;;;;;;;8.25;3.83;;;;;;;15.58;100.00;98305.13;4990304;28;20026;-74
2023/08/27 04:33:19;;;;;;;11.48;3.90;;;;;;;15.58;100.00;98286.03;5011890;28;20471;-74
2023/08/27 04:35:49;;;;;;;6.38;3.65;;;;;;;15.60;100.00;98283.06;4979650;28;20073;-74
2023/08/27 04:38:16;;;;;;;9.95;4.38;;;;;;;15.64;100.00;98287.78;4983286;28;20030;-74
2023/08/27 04:40:41;;;;;;;7.85;3.45;;;;;;;15.51;100.00;98283.50;4991831;28;20068;-73
2023/08/27 04:43:06;;;;;;;6.97;3.60;;;;;;;15.55;100.00;98279.19;4982708;28;20034;-74
2023/08/27 04:45:32;;;;;;;6.25;3.40;;;;;;;15.53;100.00;98259.50;4992963;28;20027;-74
2023/08/27 04:47:57;;;;;;;9.77;4.03;;;;;;;15.64;100.00;98251.47;4991304;28;20028;-74
2023/08/27 04:50:23;;;;;;;7.32;4.63;;;;;;;15.52;100.00;98216.97;4992853;28;20030;-74
2023/08/27 04:52:48;;;;;;;7.28;4.28;;;;;;;15.59;100.00;98245.94;4990651;28;20488;-74
2023/08/27 04:55:13;;;;;;;12.43;4.68;;;;;;;15.49;100.00;98242.00;5000003;28;20420;-74
2023/08/27 04:57:38;;;;;;;5.70;3.95;;;;;;;15.68;100.00;98278.00;4986407;28;20026;-73
2023/08/27 05:00:13;;;;;;;5.47;4.18;;;;;;;15.69;100.00;98278.88;4991096;28;20113;-73
2023/08/27 05:02:38;;;;;;;8.07;4.13;;;;;;;15.66;100.00;98271.16;4997562;28;20086;-73
2023/08/27 05:05:04;;;;;;;5.60;3.70;;;;;;;15.74;100.00;98284.41;4973606;28;20023;-74
2023/08/27 05:07:29;;;;;;;12.95;3.95;;;;;;;15.71;100.00;98276.72;4990855;28;20022;-73
2023/08/27 05:09:55;;;;;;;12.10;4.05;;;;;;;15.87;100.00;98286.78;4990722;28;20030;-73
2023/08/27 05:12:20;;;;;;;6.53;3.50;;;;;;;15.81;100.00;98270.59;4981750;28;20369;-74
2023/08/27 05:14:46;;;;;;;5.53;3.80;;;;;;;15.91;100.00;98285.22;4985510;28;20122;-74
2023/08/27 05:17:11;;;;;;;6.18;3.90;;;;;;;15.95;100.00;98291.81;4981499;28;20027;-73
2023/08/27 05:19:36;;;;;;;6.25;3.83;;;;;;;15.99;100.00;98289.41;4973096;28;20030;-74
2023/08/27 05:22:02;;;;;;;6.53;4.05;;;;;;;15.87;100.00;98281.31;4984840;28;20030;-74
2023/08/27 05:24:28;;;;;;;10.32;3.90;;;;;;;15.99;100.00;98290.25;4985881;28;20029;-74
2023/08/27 05:26:53;;;;;;;8.50;3.80;;;;;;;15.94;100.00;98272.97;4993036;28;20383;-74
2023/08/27 05:29:18;;;;;;;10.43;3.90;;;;;;;15.95;100.00;98280.88;4975247;28;20022;-74
2023/08/27 05:31:43;;;;;;;7.10;3.60;;;;;;;15.98;100.00;98283.13;4991617;28;20097;-74
2023/08/27 05:34:09;;;;;;;9.40;3.63;;;;;;;16.00;100.00;98285.59;4996604;28;20076;-74
2023/08/27 05:36:34;;;;;;;6.20;3.67;;;;;;;15.93;100.00;98283.06;5002572;28;20030;-73
2023/08/27 05:38:59;;;;;;;9.38;3.53;;;;;;;16.11;100.00;98272.91;4994067;28;20042;-76
2023/08/27 05:41:25;;;;;;;7.75;3.95;;;;;;;16.08;100.00;98259.78;4991887;28;20388;-80
2023/08/27 05:43:50;;;;;;;4.80;3.47;;;;;;;16.14;100.00;98270.53;4996377;28;20096;-76
2023/08/27 05:46:15;;;;;;;10.65;4.20;;;;;;;16.07;100.00;98274.53;4995751;28;20022;-75
2023/08/27 05:48:41;;;;;;;6.03;4.00;;;;;;;16.18;100.00;98276.31;4976404;28;20062;-78
2023/08/27 05:53:34;;;;;;;7.32;3.00;;;;;;;16.19;100.00;98297.03;5046083;28;20139;-64
2023/08/27 05:56:00;;;;;;;6.03;3.72;;;;;;;16.10;100.00;98314.94;5027811;28;20033;-64
2023/08/27 05:58:26;;;;;;;6.25;3.88;;;;;;;16.14;100.00;98318.84;5028744;28;20033;-64
2023/08/27 06:00:53;;;;;;;8.98;4.03;;;;;;;16.09;100.00;98311.41;5012294;28;20476;-64
2023/08/27 06:03:19;;;;;;;12.75;4.55;;;;;;;16.13;100.00;98308.97;5027403;28;20061;-67
2023/08/27 06:05:44;;;;;;;9.73;4.90;;;;;;;16.13;100.00;98322.63;5020008;28;20108;-65
2023/08/27 06:08:15;;;;;;;9.75;3.85;;;;;;;16.16;100.00;98333.03;5013355;28;20061;-64
2023/08/27 06:10:40;;;;;;;7.28;3.95;;;;;;;16.16;100.00;98322.13;5018285;28;20036;-64
2023/08/27 06:13:07;;;;;;;7.50;3.65;;;;;;;16.17;100.00;98323.78;5008041;28;20021;-65
2023/08/27 06:15:34;;;;;;;6.43;4.13;;;;;;;16.17;100.00;98323.78;5011714;28;20028;-64
2023/08/27 06:18:03;;;;;;;6.72;4.40;;;;;;;16.18;100.00;98323.50;5018860;28;20412;-64
2023/08/27 06:20:29;;;;;;;6.72;5.00;;;;;;;16.06;100.00;98321.97;5008179;28;20056;-67
2023/08/27 06:22:54;;;;;;;11.05;5.50;;;;;;;16.13;100.00;98317.16;5013396;28;20037;-66
2023/08/27 06:25:23;;;;;;;7.15;5.32;;;;;;;16.18;100.00;98317.25;4998824;28;20489;-67
2023/08/27 06:27:50;;;;;;;8.77;5.40;;;;;;;16.35;100.00;98298.09;5013129;28;20052;-67
2023/08/27 06:30:16;;;;;;;8.23;5.68;;;;;;;16.43;100.00;98295.75;5010926;28;20401;-67
2023/08/27 06:32:41;;;;;;;9.45;5.57;;;;;;;16.52;100.00;98287.09;5022754;28;20464;-66
2023/08/27 06:35:09;;;;;;;11.93;5.68;;;;;;;16.56;100.00;98283.63;5006006;28;20485;-66
2023/08/27 06:37:35;;;;;;;11.02;5.20;;;;;;;16.56;100.00;98277.34;5006756;28;20059;-66
2023/08/27 06:40:00;;;;;;;7.32;5.40;;;;;;;16.62;100.00;98262.66;5003778;28;20058;-66
2023/08/27 06:42:25;;;;;;;9.13;5.40;;;;;;;16.67;100.00;98273.63;5024228;28;20025;-66
2023/08/27 06:44:51;;;;;;;9.82;5.30;;;;;;;16.75;100.00;98273.19;5010926;28;20136;-65
2023/08/27 06:47:17;;;;;;;8.02;4.93;;;;;;;16.79;100.00;98281.69;5013567;28;20029;-65
2023/08/27 06:49:45;;;;;;;10.02;4.93;;;;;;;16.90;100.00;98290.84;5011538;28;20022;-66
2023/08/27 06:52:18;;;;;;;10.60;4.53;;;;;;;16.83;100.00;98289.13;5031066;28;20021;-64
2023/08/27 06:54:44;;;;;;;6.35;4.40;;;;;;;16.83;100.00;98297.34;5017331;28;20061;-64
2023/08/27 06:57:21;;;;;;;7.47;5.70;;;;;;;16.70;100.00;98310.53;5003415;28;20079;-64
2023/08/27 06:59:46;;;;;;;6.72;5.10;;;;;;;16.70;100.00;98305.91;5015241;28;20035;-64
2023/08/27 07:02:13;;;;;;;8.23;4.90;;;;;;;16.74;100.00;98323.44;5015857;28;20112;-64
2023/08/27 07:04:39;;;;;;;7.90;5.03;;;;;;;16.76;100.00;98315.78;5014454;28;20523;-64
2023/08/27 07:07:04;;;;;;;10.07;4.85;;;;;;;16.82;100.00;98314.81;5004869;28;20065;-64
2023/08/27 07:09:30;;;;;;;10.15;5.20;;;;;;;16.86;100.00;98321.41;5001204;28;20108;-64
2023/08/27 07:11:55;;;;;;;11.68;4.88;;;;;;;16.86;100.00;98326.88;5005692;28;20026;-65
2023/08/27 07:14:21;;;;;;;14.10;5.22;;;;;;;16.79;100.00;98318.06;5009612;28;20037;-64
2023/08/27 07:16:48;;;;;;;9.32;5.30;;;;;;;16.86;100.00;98315.13;5001904;28;20095;-64
2023/08/27 07:19:13;;;;;;;8.85;5.07;;;;;;;17.04;100.00;98306.56;5011975;28;20084;-64
2023/08/27 07:21:39;;;;;;;9.77;5.18;;;;;;;17.18;100.00;98301.50;5007746;28;20550;-64
2023/08/27 07:24:05;;;;;;;7.93;4.85;;;;;;;17.28;100.00;98300.78;5011115;28;20021;-64
2023/08/27 07:26:30;;;;;;;7.53;4.45;;;;;;;17.34;100.00;98296.19;5020041;28;20128;-64
2023/08/27 07:28:56;;;;;;;5.80;4.82;;;;;;;17.43;100.00;98280.97;5005513;28;20048;-64
2023/08/27 07:31:22;;;;;;;8.18;4.72;;;;;;;17.48;100.00;98278.28;5001722;28;20048;-65
2023/08/27 07:33:47;;;;;;;8.05;4.80;;;;;;;17.68;100.00;98281.19;5010818;28;20476;-64
2023/08/27 07:36:12;;;;;;;6.82;4.53;;;;;;;17.86;100.00;98274.47;5021153;28;20105;-64
2023/08/27 07:38:41;;;;;;;4.93;4.13;;;;;;;18.13;100.00;98266.16;5009028;28;20459;-64
2023/08/27 07:41:11;;;;;;;4.60;3.80;;;;;;;18.34;100.00;98252.56;5008470;28;20088;-65
2023/08/27 07:43:36;;;;;;;10.32;3.75;;;;;;;18.58;100.00;98245.53;5005920;28;20026;-60
2023/08/27 07:46:02;;;;;;;5.45;3.25;;;;;;;18.74;100.00;98246.41;5010796;28;20021;-64
2023/08/27 07:48:28;;;;;;;5.40;3.17;;;;;;;19.02;100.00;98242.38;5005804;28;20040;-64
2023/08/27 07:50:54;;;;;;;7.47;2.55;;;;;;;19.01;100.00;98229.75;5015270;28;20392;-64
2023/08/27 07:53:19;;;;;;;6.95;3.03;;;;;;;19.00;100.00;98219.06;5005808;28;20082;-64
2023/08/27 07:55:45;;;;;;;4.70;2.88;;;;;;;18.87;100.00;98234.13;5007834;28;20025;-60
2023/08/27 07:58:10;;;;;;;5.90;2.97;;;;;;;18.72;100.00;98242.28;5010135;28;20041;-59
2023/08/27 08:00:36;;;;;;;6.85;2.90;;;;;;;18.64;100.00;98260.06;5003435;28;20043;-59
2023/08/27 08:03:02;;;;;;;5.55;3.05;;;;;;;18.66;100.00;98273.50;5003875;28;20022;-59
2023/08/27 08:05:28;;;;;;;5.43;2.90;;;;;;;18.53;100.00;98278.41;5000286;28;20100;-64
2023/08/27 08:07:53;;;;;;;7.25;3.30;;;;;;;18.52;100.00;98287.72;5011204;28;20492;-64
2023/08/27 08:10:20;;;;;;;7.30;3.40;;;;;;;18.34;100.00;98296.41;5004443;28;20041;-65
2023/08/27 08:12:46;;;;;;;4.85;3.15;;;;;;;17.92;100.00;98310.91;5010893;28;20032;-65
2023/08/27 08:15:12;;;;;;;5.25;2.95;;;;;;;17.98;100.00;98328.22;5006594;28;20100;-65
2023/08/27 08:17:37;;;;;;;8.00;3.35;;;;;;;17.96;100.00;98334.75;5003998;28;20051;-64
2023/08/27 08:20:03;;;;;;;8.25;3.47;;;;;;;18.01;100.00;98341.38;5014746;28;20057;-59
2023/08/27 08:22:29;;;;;;;5.18;3.08;;;;;;;18.04;100.00;98341.66;5010381;28;20017;-59
2023/08/27 08:24:55;;;;;;;5.30;3.10;;;;;;;18.02;100.00;98332.88;5005953;28;20021;-59
2023/08/27 08:27:21;;;;;;;7.35;3.60;;;;;;;18.01;100.00;98344.09;4999543;28;20532;-59
2023/08/27 08:29:46;;;;;;;8.35;3.55;;;;;;;18.05;100.00;98343.31;5007262;28;20033;-59
2023/08/27 08:32:12;;;;;;;4.30;3.42;;;;;;;18.22;100.00;98337.66;5002170;28;20029;-59
2023/08/27 08:34:39;;;;;;;5.70;3.00;;;;;;;18.43;100.00;98341.34;5001359;28;20025;-58
2023/08/27 08:37:04;;;;;;;4.82;3.47;;;;;;;18.58;100.00;98338.69;5011563;28;20071;-59
2023/08/27 08:39:30;;;;;;;4.55;2.80;;;;;;;18.87;100.00;98345.69;5007035;28;20021;-58
2023/08/27 08:42:05;;;;;;;4.15;2.55;;;;;;;19.11;100.00;98340.56;5013982;28;20060;-59
2023/08/27 08:44:52;;;;;;;6.55;2.85;;;;;;;19.68;100.00;98326.66;5011517;28;20036;-59
2023/08/27 08:47:21;;;;;;;3.95;2.63;;;;;;;20.22;100.00;98333.47;4987162;28;20060;-58
2023/08/27 08:49:51;;;;;;;10.07;2.70;;;;;;;20.17;100.00;98310.69;4990829;28;20025;-61
2023/08/27 08:52:18;;;;;;;3.45;2.60;;;;;;;20.52;100.00;98294.09;5008714;28;20033;-62
2023/08/27 08:54:49;;;;;;;4.18;2.38;;;;;;;20.92;100.00;98273.03;5007820;28;20025;-61
2023/08/27 08:57:15;;;;;;;4.05;2.10;;;;;;;21.24;100.00;98261.53;5006263;28;20424;-62
2023/08/27 08:59:41;;;;;;;3.30;1.90;;;;;;;21.42;100.00;98249.06;5008697;28;20104;-62
2023/08/27 09:02:10;;;;;;;4.10;1.83;;;;;;;21.64;100.00;98237.59;5012810;28;20025;-62
2023/08/27 09:04:36;;;;;;;3.17;1.27;;;;;;;22.02;100.00;98228.69;5009600;28;20369;-62
2023/08/27 09:07:03;;;;;;;4.80;1.80;;;;;;;22.48;100.00;98248.28;5006681;28;20036;-62
2023/08/27 09:09:31;;;;;;;3.25;1.80;;;;;;;22.34;100.00;98260.31;5006825;28;20029;-62
2023/08/27 09:11:59;;;;;;;6.30;1.50;;;;;;;22.39;100.00;98252.81;5007275;28;20087;-66
2023/08/27 09:14:24;;;;;;;2.10;1.63;;;;;;;22.21;100.00;98253.56;5015625;28;20489;-62
2023/08/27 09:16:51;;;;;;;2.47;1.52;;;;;;;21.82;100.00;98257.25;5013854;28;20030;-62
2023/08/27 09:19:16;;;;;;;3.92;1.50;;;;;;;21.45;100.00;98264.19;5016369;28;20048;-62
2023/08/27 09:21:43;;;;;;;2.65;1.38;;;;;;;21.52;100.00;98250.09;5023659;28;20022;-62
2023/08/27 09:24:09;;;;;;;3.35;1.45;;;;;;;21.85;100.00;98251.16;5019817;28;20448;-62
2023/08/27 09:26:34;;;;;;;3.80;1.20;;;;;;;22.29;100.00;98256.50;5009931;28;20100;-62
2023/08/27 09:29:01;;;;;;;2.72;1.50;;;;;;;22.63;100.00;98254.72;5010390;28;20389;-63
2023/08/27 09:31:41;;;;;;;3.10;1.30;;;;;;;22.85;100.00;98256.91;5006607;28;20029;-63
2023/08/27 09:34:06;;;;;;;3.22;1.58;;;;;;;23.21;100.00;98254.47;5003869;28;20369;-62
2023/08/27 09:36:33;;;;;;;2.83;1.20;;;;;;;23.78;100.00;98241.38;5011428;28;20028;-62
2023/08/27 09:39:19;;;;;;;4.40;1.50;;;;;;;24.17;100.00;98220.78;5009254;28;20036;-62
2023/08/27 09:41:47;;;;;;;3.35;1.20;;;;;;;24.84;100.00;98194.50;5017033;28;20037;-63
2023/08/27 09:44:14;;;;;;;1.60;1.10;;;;;;;25.65;100.00;98194.47;5030020;28;20524;-63
2023/08/27 09:46:42;;;;;;;3.95;1.75;;;;;;;26.83;100.00;98194.75;5012903;28;20038;-62
2023/08/27 09:49:08;;;;;;;2.55;1.23;;;;;;;28.16;100.00;98197.81;5027057;28;20029;-63
2023/08/27 09:51:36;;;;;;;3.90;1.10;;;;;;;29.19;100.00;98192.78;5017363;28;20453;-61
2023/08/27 09:54:20;;;;;;;3.97;1.20;;;;;;;30.86;100.00;98184.91;5012398;28;20021;-62
2023/08/27 09:56:47;;;;;;;2.08;0.93;;;;;;;30.51;100.00;98192.97;5009542;28;20192;-61
2023/08/27 09:59:18;;;;;;;5.35;1.38;;;;;;;29.20;100.00;98197.19;5015809;28;20025;-61
2023/08/27 10:01:50;;;;;;;2.47;1.30;;;;;;;29.26;100.00;98195.81;5009969;28;20481;-62
2023/08/27 10:04:17;;;;;;;3.83;1.60;;;;;;;28.38;100.00;98199.53;5030715;28;20022;-62
2023/08/27 10:06:43;;;;;;;4.82;1.33;;;;;;;28.00;100.00;98196.75;5011613;28;20021;-62
2023/08/27 10:09:08;;;;;;;2.70;1.27;;;;;;;28.25;100.00;98201.38;5013929;28;20070;-62
2023/08/27 10:11:35;;;;;;;4.22;1.08;;;;;;;28.35;100.00;98205.78;5007290;28;20021;-62
2023/08/27 10:14:03;;;;;;;4.57;0.93;;;;;;;28.03;100.00;98210.78;5013680;28;20032;-63
2023/08/27 10:16:30;;;;;;;3.60;1.23;;;;;;;28.17;100.00;98199.47;5011433;28;20049;-63
2023/08/27 10:18:56;;;;;;;5.05;1.30;;;;;;;27.81;100.00;98202.72;5008146;28;20024;-62
2023/08/27 10:21:22;;;;;;;2.90;1.25;;;;;;;27.26;100.00;98209.81;5008221;28;20040;-62
2023/08/27 10:23:48;;;;;;;3.70;1.48;;;;;;;26.74;100.00;98202.25;5011054;28;20060;-62
2023/08/27 10:26:14;;;;;;;5.05;1.50;;;;;;;26.12;100.00;98205.13;5012257;28;20362;-61
2023/08/27 10:28:40;;;;;;;4.97;1.40;;;;;;;26.58;100.00;98189.97;5007845;28;20094;-61
2023/08/27 10:31:06;;;;;;;3.13;1.50;;;;;;;26.56;100.00;98198.63;5010139;28;20034;-61
2023/08/27 10:33:32;;;;;;;5.28;1.65;;;;;;;27.19;100.00;98193.63;5010277;28;20397;-61
2023/08/27 10:36:06;;;;;;;3.13;1.15;;;;;;;29.11;100.00;98190.06;5007884;28;20030;-62
2023/08/27 10:38:37;;;;;;;3.22;1.25;;;;;;;31.01;93.80;98194.53;5001653;28;20497;-61
2023/08/27 10:41:04;;;;;;;2.05;1.38;;;;;;;33.84;76.56;98179.00;5009516;28;20048;-61
2023/08/27 10:43:34;;;;;;;2.47;0.90;;;;;;;36.88;62.63;98175.50;5012870;28;20112;-62
2023/08/27 10:46:16;;;;;;;3.53;1.50;;;;;;;35.39;58.12;98168.91;5004855;28;20030;-63
2023/08/27 10:48:48;;;;;;;2.28;1.10;;;;;;;35.35;55.58;98168.09;5027248;28;21630;-64
2023/08/27 10:51:16;;;;;;;2.13;1.10;;;;;;;34.62;57.65;98173.91;5003050;28;20034;-64
2023/08/27 10:53:49;;;;;;;2.50;1.35;;;;;;;35.04;59.13;98184.13;5009557;28;20025;-64
2023/08/27 10:56:32;;;;;;;2.83;1.02;;;;;;;32.30;65.52;98175.66;5007613;28;20042;-63
2023/08/27 10:59:01;;;;;;;3.70;1.27;;;;;;;31.92;71.41;98170.72;5013445;28;20165;-64
2023/08/27 11:01:33;;;;;;;3.95;1.20;;;;;;;31.05;68.08;98170.31;5014167;28;20385;-63
2023/08/27 11:04:01;;;;;;;3.03;1.08;;;;;;;31.62;71.89;98174.75;5011419;28;20033;-63
2023/08/27 11:06:46;;;;;;;4.55;1.35;;;;;;;31.15;70.74;98172.59;5011485;28;20149;-63
2023/08/27 11:09:16;;;;;;;6.22;1.50;;;;;;;31.63;67.04;98181.16;5014418;28;20042;-62
2023/08/27 11:11:49;;;;;;;2.28;1.25;;;;;;;33.18;67.71;98175.31;5007835;28;20478;-62
2023/08/27 11:14:15;;;;;;;1.90;1.30;;;;;;;34.42;59.43;98180.81;5011528;28;20029;-63
2023/08/27 11:17:04;;;;;;;4.40;1.30;;;;;;;33.00;65.41;98177.69;5015221;28;20057;-63
2023/08/27 11:19:37;;;;;;;2.75;1.08;;;;;;;33.45;62.54;98179.03;5023035;28;20040;-63
2023/08/27 11:22:08;;;;;;;3.13;1.00;;;;;;;33.30;58.02;98169.56;5007852;28;20029;-63
2023/08/27 11:24:35;;;;;;;2.72;1.33;;;;;;;32.96;60.11;98169.22;5012537;28;20055;-63